Hao, French Polynesia
Current Conditions -  °F | °C
As of 8:00 PM on Thursday 30 Oct 2014 (Local Time) from NTAA Reporting Station
Broken Clouds Broken Clouds  
Wind Chill: 27°   Ceiling: 5000
Heat Index: 30°   Visibility: 6mi
Dew Point: 23°   Wind: 10mph
Humidity: 79%   Direction: 50°NE
Pressure: 29.94"   Gusts: NA
Location:  18.25°S, 140.9°W
Report Text: NTAA 310500Z 05009KT 9999 FEW020 BKN050 27/23 Q1014 NOSIG
Loading
Personal Weather Stations






























Interactive Weather Map
Tropical Storm Tracking
New forecast layout! Learn more

10-Day Weather Forecast

Advertisements
Track Severe Weather on mobile